sensor_id;sensor_type;location;lat;lon;timestamp;P1;durP1;ratioP1;P2;durP2;ratioP2
45905;SDS011;31619;49.008;12.106;2023-02-20T00:02:13;3.80;;;3.50;;
45905;SDS011;31619;49.008;12.106;2023-02-20T00:04:40;3.58;;;3.08;;
45905;SDS011;31619;49.008;12.106;2023-02-20T00:07:06;5.88;;;4.68;;
45905;SDS011;31619;49.008;12.106;2023-02-20T00:09:31;3.22;;;2.92;;
45905;SDS011;31619;49.008;12.106;2023-02-20T00:11:57;4.35;;;3.95;;
45905;SDS011;31619;49.008;12.106;2023-02-20T00:14:28;3.47;;;3.17;;
45905;SDS011;31619;49.008;12.106;2023-02-20T00:16:54;3.28;;;2.97;;
45905;SDS011;31619;49.008;12.106;2023-02-20T00:19:20;3.50;;;3.20;;
45905;SDS011;31619;49.008;12.106;2023-02-20T00:21:46;4.95;;;3.22;;
45905;SDS011;31619;49.008;12.106;2023-02-20T00:24:13;3.20;;;3.00;;
45905;SDS011;31619;49.008;12.106;2023-02-20T00:26:44;3.25;;;3.05;;
45905;SDS011;31619;49.008;12.106;2023-02-20T00:29:13;4.93;;;3.30;;
45905;SDS011;31619;49.008;12.106;2023-02-20T00:31:39;3.40;;;3.15;;
45905;SDS011;31619;49.008;12.106;2023-02-20T00:34:05;4.00;;;3.70;;
45905;SDS011;31619;49.008;12.106;2023-02-20T00:36:30;3.67;;;3.22;;
45905;SDS011;31619;49.008;12.106;2023-02-20T00:38:56;3.78;;;3.10;;
45905;SDS011;31619;49.008;12.106;2023-02-20T00:41:22;3.15;;;2.85;;
45905;SDS011;31619;49.008;12.106;2023-02-20T00:43:47;3.67;;;3.10;;
45905;SDS011;31619;49.008;12.106;2023-02-20T00:46:13;4.47;;;3.67;;
45905;SDS011;31619;49.008;12.106;2023-02-20T00:48:39;3.05;;;2.72;;
45905;SDS011;31619;49.008;12.106;2023-02-20T00:51:04;4.72;;;3.60;;
45905;SDS011;31619;49.008;12.106;2023-02-20T00:53:30;4.30;;;3.90;;
45905;SDS011;31619;49.008;12.106;2023-02-20T00:55:56;6.18;;;3.67;;
45905;SDS011;31619;49.008;12.106;2023-02-20T00:58:21;3.17;;;2.97;;
45905;SDS011;31619;49.008;12.106;2023-02-20T01:00:47;4.07;;;3.58;;
45905;SDS011;31619;49.008;12.106;2023-02-20T01:03:12;5.40;;;4.00;;
45905;SDS011;31619;49.008;12.106;2023-02-20T01:05:38;4.97;;;3.58;;
45905;SDS011;31619;49.008;12.106;2023-02-20T01:08:04;4.00;;;3.40;;
45905;SDS011;31619;49.008;12.106;2023-02-20T01:10:29;3.08;;;2.88;;
45905;SDS011;31619;49.008;12.106;2023-02-20T01:12:55;5.13;;;3.85;;
45905;SDS011;31619;49.008;12.106;2023-02-20T01:15:20;4.50;;;3.83;;
45905;SDS011;31619;49.008;12.106;2023-02-20T01:17:46;5.88;;;4.10;;
45905;SDS011;31619;49.008;12.106;2023-02-20T01:20:12;3.97;;;3.60;;
45905;SDS011;31619;49.008;12.106;2023-02-20T01:22:37;4.82;;;4.13;;
45905;SDS011;31619;49.008;12.106;2023-02-20T01:25:03;3.90;;;3.50;;
45905;SDS011;31619;49.008;12.106;2023-02-20T01:27:29;4.72;;;4.20;;
45905;SDS011;31619;49.008;12.106;2023-02-20T01:29:54;4.65;;;4.22;;
45905;SDS011;31619;49.008;12.106;2023-02-20T01:32:20;4.60;;;4.20;;
45905;SDS011;31619;49.008;12.106;2023-02-20T01:34:45;4.63;;;4.22;;
45905;SDS011;31619;49.008;12.106;2023-02-20T01:37:14;7.03;;;4.53;;
45905;SDS011;31619;49.008;12.106;2023-02-20T01:39:40;10.05;;;5.25;;
45905;SDS011;31619;49.008;12.106;2023-02-20T01:42:06;6.78;;;4.35;;
45905;SDS011;31619;49.008;12.106;2023-02-20T01:44:36;4.45;;;4.05;;
45905;SDS011;31619;49.008;12.106;2023-02-20T01:47:05;5.75;;;4.70;;
45905;SDS011;31619;49.008;12.106;2023-02-20T01:49:35;4.25;;;3.88;;
45905;SDS011;31619;49.008;12.106;2023-02-20T01:54:41;5.20;;;4.40;;
45905;SDS011;31619;49.008;12.106;2023-02-20T01:57:11;4.75;;;4.05;;
45905;SDS011;31619;49.008;12.106;2023-02-20T01:59:41;7.22;;;4.93;;
45905;SDS011;31619;49.008;12.106;2023-02-20T02:02:10;5.47;;;4.85;;
45905;SDS011;31619;49.008;12.106;2023-02-20T02:04:36;5.30;;;4.80;;
45905;SDS011;31619;49.008;12.106;2023-02-20T02:07:03;7.32;;;5.22;;
45905;SDS011;31619;49.008;12.106;2023-02-20T02:09:36;5.97;;;5.38;;
45905;SDS011;31619;49.008;12.106;2023-02-20T02:12:11;5.90;;;5.20;;
45905;SDS011;31619;49.008;12.106;2023-02-20T02:14:37;8.40;;;4.30;;
45905;SDS011;31619;49.008;12.106;2023-02-20T02:22:23;8.68;;;5.15;;
45905;SDS011;31619;49.008;12.106;2023-02-20T02:25:30;5.13;;;4.60;;
45905;SDS011;31619;49.008;12.106;2023-02-20T02:47:49;8.13;;;5.00;;
45905;SDS011;31619;49.008;12.106;2023-02-20T02:50:29;6.03;;;5.40;;
45905;SDS011;31619;49.008;12.106;2023-02-20T02:53:00;7.47;;;4.32;;
45905;SDS011;31619;49.008;12.106;2023-02-20T02:55:28;8.55;;;5.15;;
45905;SDS011;31619;49.008;12.106;2023-02-20T02:57:57;4.80;;;3.72;;
45905;SDS011;31619;49.008;12.106;2023-02-20T03:00:24;7.38;;;5.55;;
45905;SDS011;31619;49.008;12.106;2023-02-20T03:03:07;6.72;;;5.30;;
45905;SDS011;31619;49.008;12.106;2023-02-20T03:05:37;5.75;;;5.13;;
45905;SDS011;31619;49.008;12.106;2023-02-20T03:08:26;8.15;;;6.18;;
45905;SDS011;31619;49.008;12.106;2023-02-20T03:11:32;5.93;;;5.10;;
45905;SDS011;31619;49.008;12.106;2023-02-20T03:14:16;10.85;;;5.45;;
45905;SDS011;31619;49.008;12.106;2023-02-20T03:17:11;5.75;;;5.03;;
45905;SDS011;31619;49.008;12.106;2023-02-20T03:19:47;7.22;;;5.05;;
45905;SDS011;31619;49.008;12.106;2023-02-20T03:22:19;5.85;;;5.22;;
45905;SDS011;31619;49.008;12.106;2023-02-20T03:24:50;6.35;;;4.50;;
45905;SDS011;31619;49.008;12.106;2023-02-20T03:30:13;4.55;;;4.20;;
45905;SDS011;31619;49.008;12.106;2023-02-20T03:32:54;6.10;;;4.45;;
45905;SDS011;31619;49.008;12.106;2023-02-20T03:35:45;5.35;;;4.72;;
45905;SDS011;31619;49.008;12.106;2023-02-20T03:38:31;6.25;;;5.00;;
45905;SDS011;31619;49.008;12.106;2023-02-20T03:41:19;5.97;;;5.25;;
45905;SDS011;31619;49.008;12.106;2023-02-20T03:44:08;5.63;;;5.13;;
45905;SDS011;31619;49.008;12.106;2023-02-20T03:46:37;5.72;;;4.78;;
45905;SDS011;31619;49.008;12.106;2023-02-20T03:49:08;6.35;;;4.88;;
45905;SDS011;31619;49.008;12.106;2023-02-20T03:51:36;7.85;;;5.88;;
45905;SDS011;31619;49.008;12.106;2023-02-20T03:54:02;6.80;;;4.78;;
45905;SDS011;31619;49.008;12.106;2023-02-20T03:56:42;7.40;;;5.75;;
45905;SDS011;31619;49.008;12.106;2023-02-20T03:59:13;6.43;;;5.30;;
45905;SDS011;31619;49.008;12.106;2023-02-20T04:01:42;8.23;;;5.10;;
45905;SDS011;31619;49.008;12.106;2023-02-20T04:04:15;7.03;;;4.82;;
45905;SDS011;31619;49.008;12.106;2023-02-20T04:06:45;6.85;;;5.13;;
45905;SDS011;31619;49.008;12.106;2023-02-20T04:09:16;11.18;;;4.45;;
45905;SDS011;31619;49.008;12.106;2023-02-20T04:14:50;6.75;;;5.47;;
45905;SDS011;31619;49.008;12.106;2023-02-20T04:17:21;5.82;;;4.82;;
45905;SDS011;31619;49.008;12.106;2023-02-20T04:19:50;5.72;;;5.20;;
45905;SDS011;31619;49.008;12.106;2023-02-20T04:22:20;5.60;;;4.45;;
45905;SDS011;31619;49.008;12.106;2023-02-20T04:25:00;5.90;;;4.75;;
45905;SDS011;31619;49.008;12.106;2023-02-20T04:27:33;9.13;;;4.97;;
45905;SDS011;31619;49.008;12.106;2023-02-20T04:29:59;6.00;;;5.40;;
45905;SDS011;31619;49.008;12.106;2023-02-20T04:32:24;7.20;;;4.95;;
45905;SDS011;31619;49.008;12.106;2023-02-20T04:34:50;7.60;;;5.47;;
45905;SDS011;31619;49.008;12.106;2023-02-20T04:37:17;8.13;;;4.55;;
45905;SDS011;31619;49.008;12.106;2023-02-20T04:39:44;5.93;;;4.70;;
45905;SDS011;31619;49.008;12.106;2023-02-20T04:42:10;9.20;;;4.78;;
45905;SDS011;31619;49.008;12.106;2023-02-20T04:44:36;7.35;;;4.68;;
45905;SDS011;31619;49.008;12.106;2023-02-20T04:47:05;6.70;;;5.75;;
45905;SDS011;31619;49.008;12.106;2023-02-20T04:49:32;6.03;;;4.25;;
45905;SDS011;31619;49.008;12.106;2023-02-20T04:51:58;8.35;;;5.15;;
45905;SDS011;31619;49.008;12.106;2023-02-20T04:54:24;5.47;;;4.97;;
45905;SDS011;31619;49.008;12.106;2023-02-20T04:56:50;7.60;;;4.72;;
45905;SDS011;31619;49.008;12.106;2023-02-20T04:59:16;7.47;;;5.22;;
45905;SDS011;31619;49.008;12.106;2023-02-20T05:01:42;6.47;;;4.95;;
45905;SDS011;31619;49.008;12.106;2023-02-20T05:04:12;6.47;;;4.63;;
45905;SDS011;31619;49.008;12.106;2023-02-20T05:06:39;5.65;;;5.15;;
45905;SDS011;31619;49.008;12.106;2023-02-20T05:09:11;5.35;;;4.53;;
45905;SDS011;31619;49.008;12.106;2023-02-20T05:11:37;7.30;;;4.78;;
45905;SDS011;31619;49.008;12.106;2023-02-20T05:14:03;9.30;;;5.10;;
45905;SDS011;31619;49.008;12.106;2023-02-20T05:16:29;4.40;;;4.00;;
45905;SDS011;31619;49.008;12.106;2023-02-20T05:18:55;5.68;;;4.00;;
45905;SDS011;31619;49.008;12.106;2023-02-20T05:21:20;6.45;;;4.25;;
45905;SDS011;31619;49.008;12.106;2023-02-20T05:24:04;6.10;;;4.20;;
45905;SDS011;31619;49.008;12.106;2023-02-20T05:26:30;6.43;;;3.83;;
45905;SDS011;31619;49.008;12.106;2023-02-20T05:28:56;5.43;;;4.38;;
45905;SDS011;31619;49.008;12.106;2023-02-20T05:31:22;5.93;;;4.25;;
45905;SDS011;31619;49.008;12.106;2023-02-20T05:33:47;7.20;;;4.95;;
45905;SDS011;31619;49.008;12.106;2023-02-20T05:36:13;4.20;;;3.72;;
45905;SDS011;31619;49.008;12.106;2023-02-20T05:38:39;4.75;;;4.10;;
45905;SDS011;31619;49.008;12.106;2023-02-20T05:41:11;5.75;;;4.40;;
45905;SDS011;31619;49.008;12.106;2023-02-20T05:43:38;6.15;;;4.80;;
45905;SDS011;31619;49.008;12.106;2023-02-20T05:46:04;5.05;;;4.35;;
45905;SDS011;31619;49.008;12.106;2023-02-20T05:48:29;6.05;;;4.55;;
45905;SDS011;31619;49.008;12.106;2023-02-20T05:50:55;4.80;;;4.07;;
45905;SDS011;31619;49.008;12.106;2023-02-20T05:53:20;6.15;;;4.70;;
45905;SDS011;31619;49.008;12.106;2023-02-20T05:55:46;5.15;;;4.65;;
45905;SDS011;31619;49.008;12.106;2023-02-20T05:58:11;5.18;;;4.72;;
45905;SDS011;31619;49.008;12.106;2023-02-20T06:00:37;5.50;;;4.35;;
45905;SDS011;31619;49.008;12.106;2023-02-20T06:03:05;7.88;;;5.13;;
45905;SDS011;31619;49.008;12.106;2023-02-20T06:05:31;5.40;;;4.55;;
45905;SDS011;31619;49.008;12.106;2023-02-20T06:07:57;6.93;;;4.18;;
45905;SDS011;31619;49.008;12.106;2023-02-20T06:10:22;5.38;;;4.88;;
45905;SDS011;31619;49.008;12.106;2023-02-20T06:12:48;10.02;;;5.28;;
45905;SDS011;31619;49.008;12.106;2023-02-20T06:15:13;5.28;;;4.72;;
45905;SDS011;31619;49.008;12.106;2023-02-20T06:17:39;7.00;;;4.65;;
45905;SDS011;31619;49.008;12.106;2023-02-20T06:20:05;4.53;;;4.13;;
45905;SDS011;31619;49.008;12.106;2023-02-20T06:22:31;4.78;;;4.10;;
45905;SDS011;31619;49.008;12.106;2023-02-20T06:24:56;4.80;;;3.95;;
45905;SDS011;31619;49.008;12.106;2023-02-20T06:27:22;4.60;;;4.13;;
45905;SDS011;31619;49.008;12.106;2023-02-20T06:29:48;4.43;;;3.92;;
45905;SDS011;31619;49.008;12.106;2023-02-20T06:32:13;5.13;;;4.38;;
45905;SDS011;31619;49.008;12.106;2023-02-20T06:34:40;4.50;;;4.03;;
45905;SDS011;31619;49.008;12.106;2023-02-20T06:37:08;4.45;;;4.05;;
45905;SDS011;31619;49.008;12.106;2023-02-20T06:39:34;5.20;;;4.18;;
45905;SDS011;31619;49.008;12.106;2023-02-20T06:41:59;6.35;;;4.50;;
45905;SDS011;31619;49.008;12.106;2023-02-20T06:44:25;7.32;;;4.43;;
45905;SDS011;31619;49.008;12.106;2023-02-20T06:46:50;4.47;;;3.17;;
45905;SDS011;31619;49.008;12.106;2023-02-20T06:49:16;4.43;;;3.80;;
45905;SDS011;31619;49.008;12.106;2023-02-20T06:51:41;5.57;;;3.85;;
45905;SDS011;31619;49.008;12.106;2023-02-20T06:54:08;4.13;;;3.72;;
45905;SDS011;31619;49.008;12.106;2023-02-20T06:56:36;4.80;;;3.92;;
45905;SDS011;31619;49.008;12.106;2023-02-20T06:59:02;15.70;;;3.10;;
45905;SDS011;31619;49.008;12.106;2023-02-20T07:01:30;7.68;;;4.22;;
45905;SDS011;31619;49.008;12.106;2023-02-20T07:04:05;4.82;;;4.32;;
45905;SDS011;31619;49.008;12.106;2023-02-20T07:06:32;4.18;;;3.67;;
45905;SDS011;31619;49.008;12.106;2023-02-20T07:08:58;3.97;;;3.35;;
45905;SDS011;31619;49.008;12.106;2023-02-20T07:11:23;3.80;;;3.45;;
45905;SDS011;31619;49.008;12.106;2023-02-20T07:13:49;3.40;;;2.95;;
45905;SDS011;31619;49.008;12.106;2023-02-20T07:16:15;2.53;;;2.10;;
45905;SDS011;31619;49.008;12.106;2023-02-20T07:18:41;3.95;;;2.90;;
45905;SDS011;31619;49.008;12.106;2023-02-20T07:21:07;3.40;;;2.95;;
45905;SDS011;31619;49.008;12.106;2023-02-20T07:23:32;3.90;;;3.35;;
45905;SDS011;31619;49.008;12.106;2023-02-20T07:25:58;6.40;;;3.78;;
45905;SDS011;31619;49.008;12.106;2023-02-20T07:28:24;5.70;;;3.92;;
45905;SDS011;31619;49.008;12.106;2023-02-20T07:30:49;3.20;;;2.90;;
45905;SDS011;31619;49.008;12.106;2023-02-20T07:33:15;3.42;;;2.35;;
45905;SDS011;31619;49.008;12.106;2023-02-20T07:35:42;3.72;;;3.40;;
45905;SDS011;31619;49.008;12.106;2023-02-20T07:38:07;2.75;;;2.42;;
45905;SDS011;31619;49.008;12.106;2023-02-20T07:40:33;5.30;;;3.70;;
45905;SDS011;31619;49.008;12.106;2023-02-20T07:42:58;3.10;;;2.90;;
45905;SDS011;31619;49.008;12.106;2023-02-20T07:45:24;3.67;;;2.97;;
45905;SDS011;31619;49.008;12.106;2023-02-20T07:47:50;3.42;;;2.80;;
45905;SDS011;31619;49.008;12.106;2023-02-20T07:50:16;5.80;;;3.03;;
45905;SDS011;31619;49.008;12.106;2023-02-20T07:52:42;3.40;;;3.10;;
45905;SDS011;31619;49.008;12.106;2023-02-20T07:55:11;3.03;;;2.72;;
45905;SDS011;31619;49.008;12.106;2023-02-20T07:57:38;3.20;;;2.90;;
45905;SDS011;31619;49.008;12.106;2023-02-20T08:00:04;7.78;;;3.55;;
45905;SDS011;31619;49.008;12.106;2023-02-20T08:02:31;3.70;;;2.42;;
45905;SDS011;31619;49.008;12.106;2023-02-20T08:04:56;3.75;;;2.38;;
45905;SDS011;31619;49.008;12.106;2023-02-20T08:07:22;3.20;;;2.88;;
45905;SDS011;31619;49.008;12.106;2023-02-20T08:09:48;3.83;;;2.72;;
45905;SDS011;31619;49.008;12.106;2023-02-20T08:12:13;5.00;;;2.97;;
45905;SDS011;31619;49.008;12.106;2023-02-20T08:14:39;3.47;;;2.95;;
45905;SDS011;31619;49.008;12.106;2023-02-20T08:17:05;6.05;;;3.65;;
45905;SDS011;31619;49.008;12.106;2023-02-20T08:19:30;6.82;;;3.38;;
45905;SDS011;31619;49.008;12.106;2023-02-20T08:21:56;3.42;;;3.10;;
45905;SDS011;31619;49.008;12.106;2023-02-20T08:24:21;4.72;;;2.63;;
45905;SDS011;31619;49.008;12.106;2023-02-20T08:26:47;3.65;;;2.90;;
45905;SDS011;31619;49.008;12.106;2023-02-20T08:29:14;3.70;;;2.72;;
45905;SDS011;31619;49.008;12.106;2023-02-20T08:31:40;3.05;;;2.67;;
45905;SDS011;31619;49.008;12.106;2023-02-20T08:34:06;3.55;;;2.42;;
45905;SDS011;31619;49.008;12.106;2023-02-20T08:36:32;2.35;;;2.17;;
45905;SDS011;31619;49.008;12.106;2023-02-20T08:38:58;5.32;;;3.20;;
45905;SDS011;31619;49.008;12.106;2023-02-20T08:41:27;4.93;;;2.95;;
45905;SDS011;31619;49.008;12.106;2023-02-20T08:43:53;3.35;;;2.30;;
45905;SDS011;31619;49.008;12.106;2023-02-20T08:46:19;3.50;;;2.55;;
45905;SDS011;31619;49.008;12.106;2023-02-20T08:48:45;3.45;;;2.78;;
45905;SDS011;31619;49.008;12.106;2023-02-20T08:51:11;2.55;;;2.13;;
45905;SDS011;31619;49.008;12.106;2023-02-20T08:53:37;5.47;;;2.80;;
45905;SDS011;31619;49.008;12.106;2023-02-20T08:56:07;5.60;;;2.55;;
45905;SDS011;31619;49.008;12.106;2023-02-20T08:58:33;5.82;;;2.13;;
45905;SDS011;31619;49.008;12.106;2023-02-20T09:00:59;3.47;;;2.67;;
45905;SDS011;31619;49.008;12.106;2023-02-20T09:03:24;5.68;;;2.72;;
45905;SDS011;31619;49.008;12.106;2023-02-20T09:05:51;4.72;;;2.63;;
45905;SDS011;31619;49.008;12.106;2023-02-20T09:08:17;4.50;;;2.70;;
45905;SDS011;31619;49.008;12.106;2023-02-20T09:10:43;4.65;;;2.30;;
45905;SDS011;31619;49.008;12.106;2023-02-20T09:13:08;3.00;;;2.45;;
45905;SDS011;31619;49.008;12.106;2023-02-20T09:15:34;4.20;;;2.58;;
45905;SDS011;31619;49.008;12.106;2023-02-20T09:18:03;4.95;;;2.50;;
45905;SDS011;31619;49.008;12.106;2023-02-20T09:20:30;5.85;;;2.63;;
45905;SDS011;31619;49.008;12.106;2023-02-20T09:22:57;2.75;;;2.47;;
45905;SDS011;31619;49.008;12.106;2023-02-20T09:25:23;2.42;;;2.10;;
45905;SDS011;31619;49.008;12.106;2023-02-20T09:27:50;2.60;;;2.10;;
45905;SDS011;31619;49.008;12.106;2023-02-20T09:30:16;1.95;;;1.83;;
45905;SDS011;31619;49.008;12.106;2023-02-20T09:32:44;4.55;;;2.30;;
45905;SDS011;31619;49.008;12.106;2023-02-20T09:35:15;3.42;;;2.85;;
45905;SDS011;31619;49.008;12.106;2023-02-20T09:37:43;3.33;;;2.15;;
45905;SDS011;31619;49.008;12.106;2023-02-20T09:40:09;4.00;;;2.60;;
45905;SDS011;31619;49.008;12.106;2023-02-20T09:42:44;2.95;;;1.90;;
45905;SDS011;31619;49.008;12.106;2023-02-20T09:45:20;3.05;;;2.20;;
45905;SDS011;31619;49.008;12.106;2023-02-20T09:47:53;3.28;;;1.75;;
45905;SDS011;31619;49.008;12.106;2023-02-20T09:52:53;3.50;;;2.00;;
45905;SDS011;31619;49.008;12.106;2023-02-20T09:55:25;2.15;;;1.90;;
45905;SDS011;31619;49.008;12.106;2023-02-20T09:57:57;3.35;;;1.77;;
45905;SDS011;31619;49.008;12.106;2023-02-20T10:00:29;2.92;;;2.05;;
45905;SDS011;31619;49.008;12.106;2023-02-20T10:05:47;4.88;;;1.83;;
45905;SDS011;31619;49.008;12.106;2023-02-20T10:08:16;2.67;;;1.50;;
45905;SDS011;31619;49.008;12.106;2023-02-20T10:10:44;2.47;;;2.22;;
45905;SDS011;31619;49.008;12.106;2023-02-20T10:18:58;2.42;;;2.22;;
45905;SDS011;31619;49.008;12.106;2023-02-20T10:24:17;3.67;;;2.22;;
45905;SDS011;31619;49.008;12.106;2023-02-20T10:27:15;1.80;;;1.70;;
45905;SDS011;31619;49.008;12.106;2023-02-20T10:29:49;2.60;;;2.08;;
45905;SDS011;31619;49.008;12.106;2023-02-20T10:32:51;4.10;;;2.28;;
45905;SDS011;31619;49.008;12.106;2023-02-20T10:35:35;2.15;;;1.80;;
45905;SDS011;31619;49.008;12.106;2023-02-20T10:38:08;2.38;;;1.63;;
45905;SDS011;31619;49.008;12.106;2023-02-20T10:40:50;2.25;;;1.50;;
45905;SDS011;31619;49.008;12.106;2023-02-20T10:43:27;2.58;;;1.70;;
45905;SDS011;31619;49.008;12.106;2023-02-20T10:46:19;2.00;;;1.73;;
45905;SDS011;31619;49.008;12.106;2023-02-20T10:48:53;4.70;;;1.73;;
45905;SDS011;31619;49.008;12.106;2023-02-20T10:51:29;2.30;;;1.58;;
45905;SDS011;31619;49.008;12.106;2023-02-20T10:54:00;1.50;;;1.40;;
45905;SDS011;31619;49.008;12.106;2023-02-20T10:56:44;2.55;;;1.75;;
45905;SDS011;31619;49.008;12.106;2023-02-20T11:01:55;3.03;;;1.63;;
45905;SDS011;31619;49.008;12.106;2023-02-20T11:04:29;1.63;;;1.30;;
45905;SDS011;31619;49.008;12.106;2023-02-20T11:07:02;2.17;;;1.80;;
45905;SDS011;31619;49.008;12.106;2023-02-20T11:09:34;1.58;;;1.08;;
45905;SDS011;31619;49.008;12.106;2023-02-20T11:11:59;2.58;;;1.70;;
45905;SDS011;31619;49.008;12.106;2023-02-20T11:19:51;1.67;;;1.55;;
45905;SDS011;31619;49.008;12.106;2023-02-20T11:27:41;2.95;;;1.42;;
45905;SDS011;31619;49.008;12.106;2023-02-20T11:32:40;2.53;;;1.70;;
45905;SDS011;31619;49.008;12.106;2023-02-20T11:35:14;1.55;;;1.45;;
45905;SDS011;31619;49.008;12.106;2023-02-20T11:37:49;3.80;;;1.85;;
45905;SDS011;31619;49.008;12.106;2023-02-20T11:40:26;1.60;;;1.50;;
45905;SDS011;31619;49.008;12.106;2023-02-20T11:42:54;2.28;;;1.80;;
45905;SDS011;31619;49.008;12.106;2023-02-20T11:45:27;2.28;;;1.63;;
45905;SDS011;31619;49.008;12.106;2023-02-20T11:48:09;1.48;;;1.38;;
45905;SDS011;31619;49.008;12.106;2023-02-20T11:50:39;1.30;;;1.20;;
45905;SDS011;31619;49.008;12.106;2023-02-20T11:53:05;2.28;;;1.42;;
45905;SDS011;31619;49.008;12.106;2023-02-20T11:55:32;1.48;;;1.35;;
45905;SDS011;31619;49.008;12.106;2023-02-20T11:57:58;2.17;;;1.20;;
45905;SDS011;31619;49.008;12.106;2023-02-20T12:00:27;1.40;;;1.30;;
45905;SDS011;31619;49.008;12.106;2023-02-20T12:08:01;1.52;;;1.30;;
45905;SDS011;31619;49.008;12.106;2023-02-20T12:13:11;2.60;;;1.52;;
45905;SDS011;31619;49.008;12.106;2023-02-20T12:15:39;1.17;;;1.08;;
45905;SDS011;31619;49.008;12.106;2023-02-20T12:20:31;0.98;;;0.70;;
45905;SDS011;31619;49.008;12.106;2023-02-20T12:36:45;0.98;;;0.98;;
45905;SDS011;31619;49.008;12.106;2023-02-20T12:41:57;1.10;;;1.00;;
45905;SDS011;31619;49.008;12.106;2023-02-20T12:55:45;1.80;;;1.08;;
45905;SDS011;31619;49.008;12.106;2023-02-20T13:00:51;1.13;;;0.90;;
45905;SDS011;31619;49.008;12.106;2023-02-20T13:11:44;3.50;;;1.25;;
45905;SDS011;31619;49.008;12.106;2023-02-20T13:16:44;1.00;;;1.00;;
45905;SDS011;31619;49.008;12.106;2023-02-20T13:21:58;1.23;;;1.17;;
45905;SDS011;31619;49.008;12.106;2023-02-20T13:24:27;1.92;;;0.80;;
45905;SDS011;31619;49.008;12.106;2023-02-20T13:26:54;1.98;;;1.25;;
45905;SDS011;31619;49.008;12.106;2023-02-20T13:29:22;1.70;;;1.20;;
45905;SDS011;31619;49.008;12.106;2023-02-20T13:31:57;1.25;;;1.15;;
45905;SDS011;31619;49.008;12.106;2023-02-20T13:34:38;2.53;;;1.13;;
45905;SDS011;31619;49.008;12.106;2023-02-20T13:37:04;1.40;;;1.00;;
45905;SDS011;31619;49.008;12.106;2023-02-20T13:43:25;3.03;;;1.23;;
45905;SDS011;31619;49.008;12.106;2023-02-20T13:45:44;0.90;;;0.90;;
45905;SDS011;31619;49.008;12.106;2023-02-20T13:53:41;0.85;;;0.82;;
45905;SDS011;31619;49.008;12.106;2023-02-20T13:56:15;1.23;;;0.63;;
45905;SDS011;31619;49.008;12.106;2023-02-20T13:58:41;1.40;;;1.02;;
45905;SDS011;31619;49.008;12.106;2023-02-20T14:01:08;1.48;;;1.00;;
45905;SDS011;31619;49.008;12.106;2023-02-20T14:03:34;0.98;;;0.50;;
45905;SDS011;31619;49.008;12.106;2023-02-20T14:06:15;0.65;;;0.60;;
45905;SDS011;31619;49.008;12.106;2023-02-20T14:08:46;3.05;;;0.75;;
45905;SDS011;31619;49.008;12.106;2023-02-20T14:11:30;1.88;;;1.00;;
45905;SDS011;31619;49.008;12.106;2023-02-20T14:13:58;1.02;;;0.82;;
45905;SDS011;31619;49.008;12.106;2023-02-20T14:16:48;0.82;;;0.75;;
45905;SDS011;31619;49.008;12.106;2023-02-20T14:19:15;0.73;;;0.73;;
45905;SDS011;31619;49.008;12.106;2023-02-20T14:21:46;0.82;;;0.82;;
45905;SDS011;31619;49.008;12.106;2023-02-20T14:24:17;0.93;;;0.60;;
45905;SDS011;31619;49.008;12.106;2023-02-20T14:26:49;0.85;;;0.45;;
45905;SDS011;31619;49.008;12.106;2023-02-20T14:29:24;2.70;;;1.00;;
45905;SDS011;31619;49.008;12.106;2023-02-20T14:31:56;0.93;;;0.93;;
45905;SDS011;31619;49.008;12.106;2023-02-20T14:34:24;1.80;;;0.80;;
45905;SDS011;31619;49.008;12.106;2023-02-20T14:37:20;0.85;;;0.80;;
45905;SDS011;31619;49.008;12.106;2023-02-20T14:42:38;2.53;;;0.93;;
45905;SDS011;31619;49.008;12.106;2023-02-20T14:45:11;1.20;;;1.10;;
45905;SDS011;31619;49.008;12.106;2023-02-20T14:47:49;0.80;;;0.80;;
45905;SDS011;31619;49.008;12.106;2023-02-20T14:50:19;0.85;;;0.65;;
45905;SDS011;31619;49.008;12.106;2023-02-20T14:52:59;1.40;;;1.13;;
45905;SDS011;31619;49.008;12.106;2023-02-20T14:55:26;0.90;;;0.90;;
45905;SDS011;31619;49.008;12.106;2023-02-20T14:57:51;1.50;;;1.17;;
45905;SDS011;31619;49.008;12.106;2023-02-20T15:02:45;0.90;;;0.90;;
45905;SDS011;31619;49.008;12.106;2023-02-20T15:05:14;1.63;;;0.90;;
45905;SDS011;31619;49.008;12.106;2023-02-20T15:07:45;2.38;;;1.05;;
45905;SDS011;31619;49.008;12.106;2023-02-20T15:13:02;1.90;;;0.93;;
45905;SDS011;31619;49.008;12.106;2023-02-20T15:15:34;1.23;;;0.70;;
45905;SDS011;31619;49.008;12.106;2023-02-20T15:18:09;1.63;;;1.25;;
45905;SDS011;31619;49.008;12.106;2023-02-20T15:20:53;1.25;;;0.82;;
45905;SDS011;31619;49.008;12.106;2023-02-20T15:23:30;2.80;;;1.13;;
45905;SDS011;31619;49.008;12.106;2023-02-20T15:31:35;1.75;;;1.20;;
45905;SDS011;31619;49.008;12.106;2023-02-20T15:34:05;2.75;;;1.35;;
45905;SDS011;31619;49.008;12.106;2023-02-20T15:36:43;1.10;;;1.00;;
45905;SDS011;31619;49.008;12.106;2023-02-20T15:39:09;2.63;;;1.05;;
45905;SDS011;31619;49.008;12.106;2023-02-20T15:41:36;3.47;;;0.80;;
45905;SDS011;31619;49.008;12.106;2023-02-20T15:44:02;2.00;;;0.77;;
45905;SDS011;31619;49.008;12.106;2023-02-20T15:46:28;1.35;;;0.95;;
45905;SDS011;31619;49.008;12.106;2023-02-20T15:48:54;1.70;;;1.10;;
45905;SDS011;31619;49.008;12.106;2023-02-20T15:51:20;1.35;;;0.95;;
45905;SDS011;31619;49.008;12.106;2023-02-20T15:53:47;1.25;;;0.85;;
45905;SDS011;31619;49.008;12.106;2023-02-20T15:56:14;2.28;;;1.10;;
45905;SDS011;31619;49.008;12.106;2023-02-20T15:58:41;1.52;;;1.05;;
45905;SDS011;31619;49.008;12.106;2023-02-20T16:01:08;0.77;;;0.77;;
45905;SDS011;31619;49.008;12.106;2023-02-20T16:03:34;1.38;;;0.77;;
45905;SDS011;31619;49.008;12.106;2023-02-20T16:06:00;0.38;;;0.38;;
45905;SDS011;31619;49.008;12.106;2023-02-20T16:08:26;2.65;;;1.15;;
45905;SDS011;31619;49.008;12.106;2023-02-20T16:10:52;1.38;;;0.90;;
45905;SDS011;31619;49.008;12.106;2023-02-20T16:15:55;1.30;;;1.20;;
45905;SDS011;31619;49.008;12.106;2023-02-20T16:18:22;1.55;;;1.25;;
45905;SDS011;31619;49.008;12.106;2023-02-20T16:20:48;3.97;;;1.95;;
45905;SDS011;31619;49.008;12.106;2023-02-20T16:23:15;1.27;;;1.17;;
45905;SDS011;31619;49.008;12.106;2023-02-20T16:25:40;0.95;;;0.95;;
45905;SDS011;31619;49.008;12.106;2023-02-20T16:28:06;1.10;;;1.05;;
45905;SDS011;31619;49.008;12.106;2023-02-20T16:30:33;2.47;;;1.30;;
45905;SDS011;31619;49.008;12.106;2023-02-20T16:33:02;2.03;;;1.35;;
45905;SDS011;31619;49.008;12.106;2023-02-20T16:35:37;1.65;;;1.55;;
45905;SDS011;31619;49.008;12.106;2023-02-20T16:38:03;3.15;;;2.00;;
45905;SDS011;31619;49.008;12.106;2023-02-20T16:40:29;2.38;;;2.08;;
45905;SDS011;31619;49.008;12.106;2023-02-20T16:42:54;1.90;;;1.65;;
45905;SDS011;31619;49.008;12.106;2023-02-20T16:45:20;2.08;;;1.90;;
45905;SDS011;31619;49.008;12.106;2023-02-20T16:47:51;1.90;;;1.80;;
45905;SDS011;31619;49.008;12.106;2023-02-20T16:50:20;2.08;;;1.98;;
45905;SDS011;31619;49.008;12.106;2023-02-20T16:52:53;3.53;;;1.95;;
45905;SDS011;31619;49.008;12.106;2023-02-20T16:55:21;1.70;;;1.60;;
45905;SDS011;31619;49.008;12.106;2023-02-20T16:57:55;1.90;;;1.25;;
45905;SDS011;31619;49.008;12.106;2023-02-20T17:00:22;1.70;;;1.60;;
45905;SDS011;31619;49.008;12.106;2023-02-20T17:02:50;1.33;;;1.20;;
45905;SDS011;31619;49.008;12.106;2023-02-20T17:05:18;2.55;;;1.65;;
45905;SDS011;31619;49.008;12.106;2023-02-20T17:07:48;1.20;;;1.20;;
45905;SDS011;31619;49.008;12.106;2023-02-20T17:10:14;1.65;;;1.15;;